Time;durP1;ratioP1;P1;durP2;ratioP2;P2;SDS_P1;SDS_P2;PMS_P1;PMS_P2;Temp;Humidity;BMP_temperature;BMP_pressure;BME280_temperature;BME280_humidity;BME280_pressure;Samples;Min_cycle;Max_cycle;Signal;HPM_P1;HPM_P2
2022/03/24 00:02:20;;;;;;;;;59.00;45.50;;;;;28.47;16.94;102285.94;5055210;28;45912;-71
2022/03/24 00:04:45;;;;;;;;;58.50;47.25;;;;;28.40;16.82;102301.63;5056285;28;45518;-71
2022/03/24 00:07:12;;;;;;;;;57.25;46.00;;;;;28.28;16.97;102299.25;5057004;28;45427;-71
2022/03/24 00:09:37;;;;;;;;;60.25;47.75;;;;;27.90;17.17;102255.84;5055245;28;45515;-72
2022/03/24 00:12:03;;;;;;;;;59.75;48.00;;;;;27.92;17.35;102263.06;5055139;28;48229;-71
2022/03/24 00:14:28;;;;;;;;;60.25;46.75;;;;;28.12;17.31;102290.66;5056536;28;45492;-71
2022/03/24 00:16:53;;;;;;;;;55.75;44.50;;;;;28.12;17.19;102289.78;5056890;28;45292;-71
2022/03/24 00:19:19;;;;;;;;;56.00;45.50;;;;;28.06;17.18;102288.13;5056390;28;45440;-71
2022/03/24 00:21:45;;;;;;;;;60.50;48.25;;;;;27.92;17.41;102293.97;5056073;28;45341;-71
2022/03/24 00:24:11;;;;;;;;;52.25;43.50;;;;;27.92;17.39;102293.97;5054914;28;45499;-72
2022/03/24 00:26:37;;;;;;;;;56.25;44.25;;;;;27.90;17.34;102291.28;5056259;28;45289;-71
2022/03/24 00:29:03;;;;;;;;;60.75;46.75;;;;;27.82;17.23;102285.16;5056663;28;45324;-71
2022/03/24 00:31:29;;;;;;;;;54.50;43.75;;;;;27.61;17.53;102248.50;5056184;28;45348;-71
2022/03/24 00:33:55;;;;;;;;;59.75;48.00;;;;;27.77;17.76;102292.56;5054522;28;45449;-71
2022/03/24 00:36:21;;;;;;;;;47.50;37.25;;;;;27.72;17.75;102292.72;5056172;28;45392;-71
2022/03/24 00:38:46;;;;;;;;;57.00;45.75;;;;;27.44;17.78;102261.69;5056370;28;45457;-71
2022/03/24 00:41:12;;;;;;;;;51.75;41.75;;;;;27.55;17.76;102295.91;5055882;28;45425;-71
2022/03/24 00:43:39;;;;;;;;;53.75;45.75;;;;;27.56;17.62;102283.16;5055948;28;45530;-72
2022/03/24 00:46:05;;;;;;;;;55.50;46.00;;;;;27.69;17.83;102283.72;5056344;28;45307;-71
2022/03/24 00:48:31;;;;;;;;;54.50;44.75;;;;;27.52;17.75;102252.41;5055640;28;45322;-72
2022/03/24 00:50:56;;;;;;;;;54.50;43.75;;;;;27.82;17.52;102276.97;5055903;28;45431;-72
2022/03/24 00:53:23;;;;;;;;;50.67;40.67;;;;;27.62;17.54;102233.03;5056134;28;45447;-71
2022/03/24 00:55:48;;;;;;;;;59.75;47.50;;;;;27.84;17.57;102287.84;5056056;28;45496;-71
2022/03/24 00:58:14;;;;;;;;;52.00;40.50;;;;;27.78;17.33;102272.56;5054591;28;45451;-72
2022/03/24 01:00:40;;;;;;;;;55.75;46.00;;;;;27.66;17.84;102272.91;5055943;28;45464;-71
2022/03/24 01:03:06;;;;;;;;;52.75;43.00;;;;;27.62;17.29;102274.81;5055619;28;45550;-71
2022/03/24 01:05:32;;;;;;;;;52.75;43.50;;;;;27.53;17.65;102275.09;5055950;28;45450;-71
2022/03/24 01:07:57;;;;;;;;;51.33;41.67;;;;;27.45;17.23;102271.69;5055733;28;45506;-72
2022/03/24 01:10:23;;;;;;;;;49.00;40.67;;;;;27.17;17.88;102239.69;5055720;28;45572;-71
2022/03/24 01:12:49;;;;;;;;;52.67;42.33;;;;;27.34;17.44;102270.13;5055634;28;45935;-71
2022/03/24 01:15:18;;;;;;;;;51.00;42.67;;;;;27.12;17.85;102214.44;5055770;28;45383;-71
2022/03/24 01:17:44;;;;;;;;;50.33;42.33;;;;;27.44;17.67;102259.91;5053869;28;45424;-71
2022/03/24 01:20:11;;;;;;;;;49.00;40.33;;;;;27.50;17.58;102265.16;5055618;28;46614;-71
2022/03/24 01:22:37;;;;;;;;;45.33;38.33;;;;;27.62;17.38;102266.63;5055265;28;45412;-71
2022/03/24 01:25:04;;;;;;;;;55.00;44.75;;;;;27.70;17.42;102259.13;5055542;28;45361;-71
2022/03/24 01:27:30;;;;;;;;;31.75;24.75;;;;;27.65;17.62;102252.94;5055656;28;45478;-71
2022/03/24 01:29:56;;;;;;;;;53.00;42.67;;;;;27.74;17.82;102268.13;5055099;28;45895;-72
2022/03/24 01:32:22;;;;;;;;;55.00;44.33;;;;;27.27;17.55;102180.41;5055652;28;45372;-71
2022/03/24 01:34:48;;;;;;;;;54.00;44.75;;;;;27.48;18.14;102230.69;5055571;28;45597;-71
2022/03/24 01:37:14;;;;;;;;;51.33;40.33;;;;;27.68;17.94;102265.59;5055530;28;45459;-71
2022/03/24 01:39:39;;;;;;;;;51.00;41.67;;;;;27.67;17.75;102264.69;5054924;28;46233;-71
2022/03/24 01:42:05;;;;;;;;;48.67;38.67;;;;;27.67;17.69;102266.53;5055312;28;45534;-71
2022/03/24 01:44:31;;;;;;;;;55.00;43.50;;;;;27.63;17.75;102262.09;5055104;28;45762;-72
2022/03/24 01:47:07;;;;;;;;;55.00;44.67;;;;;27.53;17.75;102259.63;5055169;28;45519;-71
2022/03/24 01:49:37;;;;;;;;;52.00;43.00;;;;;27.60;17.91;102254.88;5057946;28;46656;-71
2022/03/24 01:52:06;;;;;;;;;50.33;40.00;;;;;27.66;17.99;102249.25;5058814;28;45499;-71
2022/03/24 01:54:33;;;;;;;;;58.00;44.50;;;;;27.54;18.33;102233.28;5058864;28;45849;-71
2022/03/24 01:56:59;;;;;;;;;55.00;43.33;;;;;27.60;18.35;102252.16;5058678;28;45404;-72
2022/03/24 01:59:24;;;;;;;;;53.33;44.00;;;;;27.52;18.33;102240.56;5057887;28;47356;-71
2022/03/24 02:01:50;;;;;;;;;50.67;42.67;;;;;27.69;18.58;102245.53;5058151;28;45475;-71
2022/03/24 02:04:17;;;;;;;;;53.67;43.00;;;;;27.68;18.35;102241.06;5058689;28;45428;-71
2022/03/24 02:06:43;;;;;;;;;51.67;42.33;;;;;27.75;18.74;102233.56;5058812;28;45159;-71
2022/03/24 02:09:09;;;;;;;;;51.67;41.33;;;;;27.70;18.71;102244.59;5058594;28;45321;-72
2022/03/24 02:11:35;;;;;;;;;55.67;42.33;;;;;27.76;18.49;102241.69;5058470;28;45399;-71
2022/03/24 02:14:01;;;;;;;;;50.33;40.67;;;;;27.72;18.19;102234.53;5058343;28;45472;-72
2022/03/24 02:16:34;;;;;;;;;55.50;43.50;;;;;27.79;18.54;102238.91;5058671;28;45369;-72
2022/03/24 02:19:23;;;;;;;;;52.00;45.00;;;;;27.82;18.53;102238.81;5058447;28;45589;-72
2022/03/24 02:21:54;;;;;;;;;52.25;42.75;;;;;27.85;18.51;102241.44;5058083;28;45569;-72
2022/03/24 02:24:22;;;;;;;;;53.75;44.50;;;;;27.80;18.71;102239.78;5058370;28;45376;-71
2022/03/24 02:26:48;;;;;;;;;54.00;45.00;;;;;27.81;18.84;102245.19;5058348;28;45447;-72
2022/03/24 02:29:16;;;;;;;;;50.00;41.33;;;;;27.81;18.74;102247.03;5058028;28;45412;-72
2022/03/24 02:31:45;;;;;;;;;51.33;42.00;;;;;27.82;18.91;102251.53;5058237;28;45470;-72
2022/03/24 02:36:58;;;;;;;;;48.67;39.33;;;;;27.73;18.56;102244.50;5058408;28;45514;-71
2022/03/24 02:39:24;;;;;;;;;48.67;40.00;;;;;27.61;19.10;102240.31;5058021;28;46389;-72
2022/03/24 02:41:52;;;;;;;;;48.67;37.00;;;;;27.45;18.80;102226.22;5057801;28;45559;-71
2022/03/24 02:44:19;;;;;;;;;54.00;45.00;;;;;27.53;18.80;102237.81;5057897;28;45338;-72
2022/03/24 02:46:49;;;;;;;;;53.25;40.25;;;;;27.48;19.00;102234.34;5058179;28;45500;-72
2022/03/24 02:49:15;;;;;;;;;54.33;42.67;;;;;27.41;18.21;102242.72;5057864;28;46123;-71
2022/03/24 02:51:42;;;;;;;;;49.00;41.33;;;;;27.35;18.30;102236.50;5057982;28;45418;-71
2022/03/24 02:54:08;;;;;;;;;49.67;40.67;;;;;27.36;18.66;102241.00;5058156;28;45479;-72
2022/03/24 02:56:34;;;;;;;;;52.00;41.33;;;;;27.33;18.57;102241.06;5058120;28;45555;-72
2022/03/24 02:59:00;;;;;;;;;52.67;40.67;;;;;27.16;18.96;102218.84;5056745;28;45385;-72
2022/03/24 03:01:25;;;;;;;;;50.33;42.33;;;;;27.15;18.92;102230.69;5057178;28;45423;-72
2022/03/24 03:03:54;;;;;;;;;51.67;42.00;;;;;27.13;18.57;102233.44;5057410;28;45638;-72
2022/03/24 03:06:20;;;;;;;;;53.00;43.67;;;;;27.01;18.84;102240.09;5057995;28;45436;-72
2022/03/24 03:08:47;;;;;;;;;48.67;40.00;;;;;27.00;18.70;102234.69;5057551;28;46230;-71
2022/03/24 03:11:12;;;;;;;;;53.33;42.00;;;;;26.98;18.49;102247.47;5056335;28;45514;-71
2022/03/24 03:13:38;;;;;;;;;48.67;38.67;;;;;27.01;18.46;102247.41;5057040;28;46788;-72
2022/03/24 03:16:04;;;;;;;;;49.67;40.00;;;;;26.99;18.43;102242.00;5057873;28;45262;-71
2022/03/24 03:18:32;;;;;;;;;48.00;40.00;;;;;26.88;18.81;102211.44;5057475;28;46032;-71
2022/03/24 03:20:58;;;;;;;;;47.67;39.67;;;;;26.88;18.59;102211.44;5057178;28;45406;-72
2022/03/24 03:23:23;;;;;;;;;51.67;40.67;;;;;27.01;18.44;102240.09;5057662;28;45414;-72
2022/03/24 03:25:49;;;;;;;;;52.67;41.67;;;;;26.88;19.04;102225.03;5057428;28;45340;-71
2022/03/24 03:28:14;;;;;;;;;48.00;41.33;;;;;26.96;19.17;102230.25;5056998;28;45390;-71
2022/03/24 03:30:40;;;;;;;;;52.67;40.67;;;;;26.93;19.37;102250.31;5057463;28;45430;-72
2022/03/24 03:33:05;;;;;;;;;52.00;42.33;;;;;26.95;18.63;102243.00;5057500;28;45774;-72
2022/03/24 03:35:30;;;;;;;;;46.67;39.67;;;;;26.98;18.49;102248.38;5055787;28;45425;-72
2022/03/24 03:37:56;;;;;;;;;39.33;35.67;;;;;26.86;18.82;102246.88;5056975;28;45396;-71
2022/03/24 03:40:21;;;;;;;;;51.00;41.00;;;;;26.77;18.62;102244.38;5057143;28;45471;-71
2022/03/24 03:42:50;;;;;;;;;48.00;40.00;;;;;26.78;18.78;102247.97;5056917;28;45372;-72
2022/03/24 03:45:16;;;;;;;;;50.67;41.33;;;;;26.62;19.48;102251.03;5055838;28;45452;-71
2022/03/24 03:47:41;;;;;;;;;53.33;44.00;;;;;26.33;19.96;102258.09;5056783;28;46154;-72
2022/03/24 03:50:07;;;;;;;;;50.33;40.00;;;;;26.41;19.77;102248.84;5056798;28;45386;-72
2022/03/24 03:52:32;;;;;;;;;47.33;39.33;;;;;26.63;19.82;102244.69;5057225;28;45705;-72
2022/03/24 03:54:57;;;;;;;;;47.67;41.33;;;;;26.73;19.21;102250.81;5056430;28;45415;-72
2022/03/24 03:57:23;;;;;;;;;51.00;41.00;;;;;26.60;19.70;102225.69;5056638;28;45365;-72
2022/03/24 03:59:48;;;;;;;;;48.00;40.33;;;;;26.88;19.76;102249.56;5056516;28;45348;-72
2022/03/24 04:02:14;;;;;;;;;49.33;39.00;;;;;26.86;20.01;102235.06;5057042;28;45368;-72
2022/03/24 04:04:39;;;;;;;;;52.67;42.67;;;;;26.82;19.89;102233.34;5056817;28;45532;-72
2022/03/24 04:07:04;;;;;;;;;50.33;40.67;;;;;26.97;19.69;102249.28;5056534;28;45475;-71
2022/03/24 04:09:30;;;;;;;;;52.67;42.33;;;;;26.92;19.84;102247.63;5056561;28;45396;-72
2022/03/24 04:11:55;;;;;;;;;49.33;42.00;;;;;26.88;20.06;102225.03;5056256;28;45462;-72
2022/03/24 04:14:21;;;;;;;;;51.33;43.00;;;;;26.96;19.86;102241.16;5056593;28;45351;-72
2022/03/24 04:16:47;;;;;;;;;51.33;42.67;;;;;26.55;19.80;102178.63;5056440;28;45336;-71
2022/03/24 04:19:12;;;;;;;;;51.00;40.33;;;;;26.63;19.98;102239.22;5056507;28;45387;-71
2022/03/24 04:21:38;;;;;;;;;49.00;41.00;;;;;26.52;19.85;102231.31;5056471;28;45432;-71
2022/03/24 04:24:04;;;;;;;;;53.00;42.33;;;;;26.41;19.53;102210.75;5056249;28;45527;-72
2022/03/24 04:26:29;;;;;;;;;56.67;44.00;;;;;26.58;19.91;102241.19;5056494;28;46042;-72
2022/03/24 04:28:55;;;;;;;;;49.67;40.33;;;;;26.60;19.49;102242.03;5056086;28;45321;-72
2022/03/24 04:31:22;;;;;;;;;50.33;42.00;;;;;26.61;20.24;102246.56;5056581;28;45478;-72
2022/03/24 04:33:48;;;;;;;;;52.67;42.67;;;;;26.51;20.31;102237.72;5056518;28;45368;-71
2022/03/24 04:36:13;;;;;;;;;51.33;41.33;;;;;26.27;20.44;102239.19;5056342;28;45636;-72
2022/03/24 04:38:39;;;;;;;;;50.00;41.67;;;;;26.26;20.76;102229.25;5055884;28;45562;-72
2022/03/24 04:41:05;;;;;;;;;52.67;44.00;;;;;26.39;21.14;102250.72;5055952;28;45562;-72
2022/03/24 04:43:31;;;;;;;;;50.33;39.00;;;;;26.07;21.16;102214.28;5056525;28;45524;-72
2022/03/24 04:45:57;;;;;;;;;52.67;43.67;;;;;26.36;21.35;102247.13;5055982;28;45439;-72
2022/03/24 04:48:23;;;;;;;;;52.67;41.33;;;;;26.40;21.51;102249.78;5056232;28;45435;-72
2022/03/24 04:50:48;;;;;;;;;50.33;39.67;;;;;26.40;21.06;102252.50;5056253;28;45716;-72
2022/03/24 04:53:15;;;;;;;;;48.33;41.00;;;;;26.29;21.16;102255.50;5055549;28;45381;-71
2022/03/24 04:55:42;;;;;;;;;53.33;41.67;;;;;26.34;21.21;102249.00;5055881;28;45438;-71
2022/03/24 04:58:08;;;;;;;;;41.67;37.00;;;;;26.42;21.03;102247.94;5055861;28;45357;-72
2022/03/24 05:00:34;;;;;;;;;44.67;40.33;;;;;26.30;21.01;102240.94;5055981;28;45369;-72
2022/03/24 05:02:59;;;;;;;;;50.33;41.33;;;;;26.12;20.86;102204.19;5055588;28;45347;-72
2022/03/24 05:05:24;;;;;;;;;51.33;41.67;;;;;26.29;21.14;102228.28;5055870;28;45968;-72
2022/03/24 05:07:50;;;;;;;;;58.00;43.00;;;;;26.45;21.02;102237.84;5055016;28;54172;-72
2022/03/24 05:10:16;;;;;;;;;53.67;42.00;;;;;26.39;20.69;102239.84;5055907;28;45274;-71
2022/03/24 05:12:42;;;;;;;;;52.67;44.33;;;;;26.26;20.70;102229.25;5054450;28;45484;-72
2022/03/24 05:15:13;;;;;;;;;49.67;40.33;;;;;26.06;20.87;102227.00;5053945;28;47488;-72
2022/03/24 05:17:38;;;;;;;;;58.00;45.75;;;;;26.12;21.24;102242.28;5055760;28;45435;-72
2022/03/24 05:20:05;;;;;;;;;56.67;43.67;;;;;26.15;21.27;102242.19;5055815;28;45767;-72
2022/03/24 05:22:30;;;;;;;;;52.67;41.67;;;;;26.23;20.78;102245.66;5054250;28;45526;-72
2022/03/24 05:24:56;;;;;;;;;48.00;39.00;;;;;26.08;21.00;102216.97;5055208;28;45977;-72
2022/03/24 05:27:21;;;;;;;;;48.67;38.67;;;;;25.75;20.79;102145.16;5055561;28;45377;-72
2022/03/24 05:29:46;;;;;;;;;48.67;40.67;;;;;26.16;21.09;102244.88;5054885;28;53986;-71
2022/03/24 05:32:12;;;;;;;;;48.33;40.00;;;;;26.04;21.01;102244.28;5055326;28;45452;-72
2022/03/24 05:34:37;;;;;;;;;52.00;42.33;;;;;25.96;20.89;102237.16;5054814;28;46085;-73
2022/03/24 05:37:03;;;;;;;;;48.67;40.67;;;;;25.79;20.69;102214.84;5054684;28;45566;-72
2022/03/24 05:39:29;;;;;;;;;44.67;35.33;;;;;25.85;20.97;102220.16;5055421;28;45606;-72
2022/03/24 05:41:54;;;;;;;;;40.50;37.75;;;;;25.78;21.24;102229.34;5055444;28;45568;-72
2022/03/24 05:44:20;;;;;;;;;51.33;39.67;;;;;25.77;21.34;102222.16;5055283;28;46066;-72
2022/03/24 05:46:46;;;;;;;;;58.33;45.00;;;;;25.95;21.30;102246.22;5055099;28;45532;-72
2022/03/24 05:49:14;;;;;;;;;51.33;40.33;;;;;25.71;20.96;102231.34;5055158;28;45829;-72
2022/03/24 05:51:42;;;;;;;;;47.00;41.00;;;;;25.80;21.19;102249.28;5054782;28;45476;-72
2022/03/24 05:54:09;;;;;;;;;46.00;38.33;;;;;25.20;21.37;102158.94;5054579;28;45376;-72
2022/03/24 05:56:35;;;;;;;;;47.75;38.25;;;;;25.80;21.80;102242.00;5054955;28;45409;-71
2022/03/24 05:59:00;;;;;;;;;50.67;42.67;;;;;25.46;21.43;102182.91;5054879;28;45247;-72
2022/03/24 06:01:25;;;;;;;;;45.00;37.33;;;;;25.90;21.26;102229.09;5055276;28;45566;-73
2022/03/24 06:03:52;;;;;;;;;45.33;39.00;;;;;26.06;21.42;102254.19;5053943;28;45939;-72
2022/03/24 06:06:18;;;;;;;;;47.00;40.33;;;;;26.09;21.24;102264.06;5055006;27;45533;-73
2022/03/24 06:08:44;;;;;;;;;42.33;37.33;;;;;26.04;21.20;102255.16;5057770;28;45452;-74
2022/03/24 06:11:12;;;;;;;;;58.67;47.33;;;;;25.95;21.19;102235.34;5066783;28;46732;-74
2022/03/24 06:13:39;;;;;;;;;54.00;43.33;;;;;25.90;20.96;102231.81;5074810;27;46335;-74
2022/03/24 06:16:05;;;;;;;;;49.67;39.67;;;;;25.97;20.98;102238.03;5062209;27;45672;-73
2022/03/24 06:18:32;;;;;;;;;48.00;40.67;;;;;26.05;21.12;102262.34;5061218;28;45512;-74
2022/03/24 06:20:59;;;;;;;;;47.00;39.00;;;;;25.94;20.76;102259.84;5062881;27;45436;-73
2022/03/24 06:23:24;;;;;;;;;50.33;40.67;;;;;25.68;20.68;102224.13;5054533;28;46695;-74
2022/03/24 06:25:50;;;;;;;;;54.67;41.67;;;;;25.87;20.39;102229.19;5051155;28;45521;-75
2022/03/24 06:28:15;;;;;;;;;51.67;41.00;;;;;26.08;20.46;102256.88;5056726;28;45865;-74
2022/03/24 06:30:41;;;;;;;;;52.67;43.00;;;;;26.05;20.61;102259.63;5039677;28;45320;-75
2022/03/24 06:33:06;;;;;;;;;47.67;40.67;;;;;26.03;20.06;102254.22;5036907;28;46087;-75
2022/03/24 06:35:32;;;;;;;;;52.33;43.33;;;;;25.95;20.09;102229.91;5052212;28;45444;-74
2022/03/24 06:37:57;;;;;;;;;51.67;40.00;;;;;26.14;20.06;102262.16;5056965;28;52416;-75
2022/03/24 06:40:22;;;;;;;;;53.00;43.00;;;;;26.10;20.36;102265.88;5057566;28;45308;-74
2022/03/24 06:42:47;;;;;;;;;52.67;44.00;;;;;26.04;20.40;102246.97;5057096;28;46435;-74
2022/03/24 06:45:14;;;;;;;;;52.25;41.50;;;;;26.14;20.30;102265.75;5067310;28;45547;-74
2022/03/24 06:47:40;;;;;;;;;55.67;43.00;;;;;26.22;20.39;102265.59;5046566;27;45413;-75
2022/03/24 06:50:10;;;;;;;;;52.67;42.00;;;;;26.32;20.16;102261.75;5037526;28;45686;-75
2022/03/24 06:52:36;;;;;;;;;52.33;41.33;;;;;26.38;20.24;102251.66;5046240;28;47136;-75
2022/03/24 06:55:01;;;;;;;;;51.33;42.67;;;;;26.36;20.10;102248.97;5066469;28;45455;-73
2022/03/24 06:57:28;;;;;;;;;55.33;40.00;;;;;26.27;19.97;102231.03;5051987;28;45419;-75
2022/03/24 06:59:53;;;;;;;;;51.67;40.00;;;;;26.41;19.55;102265.19;5056656;28;45627;-74
2022/03/24 07:02:19;;;;;;;;;47.33;41.33;;;;;26.27;19.67;102246.44;5056635;28;46023;-75
2022/03/24 07:04:44;;;;;;;;;55.00;42.67;;;;;26.38;19.41;102276.13;5050201;28;45486;-75
2022/03/24 07:07:09;;;;;;;;;50.00;40.33;;;;;26.36;19.75;102279.78;5056816;28;45406;-75
2022/03/24 07:09:37;;;;;;;;;53.67;41.00;;;;;26.21;19.50;102257.47;5046176;28;47017;-75
2022/03/24 07:12:03;;;;;;;;;55.00;44.00;;;;;26.35;19.96;102277.97;5051423;28;45416;-74
2022/03/24 07:14:28;;;;;;;;;52.67;42.67;;;;;26.28;19.62;102270.00;5055995;28;45412;-74
2022/03/24 07:16:54;;;;;;;;;54.00;42.00;;;;;26.29;19.54;102278.13;5047881;28;45367;-74
2022/03/24 07:19:19;;;;;;;;;56.75;41.75;;;;;26.19;19.81;102241.19;5043426;28;45459;-75
2022/03/24 07:21:45;;;;;;;;;53.67;42.33;;;;;26.25;19.47;102232.00;5063648;28;46385;-75
2022/03/24 07:24:11;;;;;;;;;50.33;38.67;;;;;26.28;19.67;102231.94;5060467;28;45329;-75
2022/03/24 07:26:36;;;;;;;;;55.00;46.67;;;;;26.57;19.63;102262.97;5077480;27;45225;-74
2022/03/24 07:29:02;;;;;;;;;55.33;44.00;;;;;26.40;19.32;102236.16;5077322;27;45311;-75
2022/03/24 07:31:28;;;;;;;;;53.00;44.00;;;;;26.54;19.48;102242.19;5057324;27;45359;-75
2022/03/24 07:33:55;;;;;;;;;50.67;41.67;;;;;26.72;19.11;102275.38;5073610;28;45353;-74
2022/03/24 07:36:22;;;;;;;;;45.00;39.33;;;;;26.62;19.82;102266.50;5068646;27;45513;-75
2022/03/24 07:38:49;;;;;;;;;48.67;43.00;;;;;26.43;19.37;102220.69;5057009;28;45273;-74
2022/03/24 07:41:15;;;;;;;;;55.33;42.00;;;;;26.84;19.59;102275.94;5062153;28;45554;-74
2022/03/24 07:43:40;;;;;;;;;51.67;40.00;;;;;26.95;19.55;102288.41;5075394;27;45738;-78
2022/03/24 07:46:06;;;;;;;;;50.00;41.67;;;;;27.11;19.63;102283.47;5038479;28;45646;-75
2022/03/24 07:48:31;;;;;;;;;55.50;45.75;;;;;27.16;19.33;102279.69;5040149;28;45603;-77
2022/03/24 07:50:58;;;;;;;;;42.00;37.00;;;;;27.20;19.61;102284.13;5046258;28;46062;-75
2022/03/24 07:53:33;;;;;;;;;55.33;45.00;;;;;27.31;18.92;102296.53;5050664;28;45425;-75
2022/03/24 07:56:00;;;;;;;;;53.67;43.00;;;;;27.31;19.13;102296.53;5042792;28;46578;-75
2022/03/24 07:58:26;;;;;;;;;54.25;44.75;;;;;27.34;19.26;102308.28;5041520;28;45596;-76
2022/03/24 08:00:51;;;;;;;;;52.00;42.75;;;;;27.26;18.99;102313.03;5052007;28;45885;-74
2022/03/24 08:03:19;;;;;;;;;57.50;46.50;;;;;27.36;18.54;102303.69;5051473;28;45845;-74
2022/03/24 08:05:46;;;;;;;;;55.75;46.00;;;;;27.34;18.71;102302.81;5047748;28;45451;-75
2022/03/24 08:08:12;;;;;;;;;50.00;43.00;;;;;27.31;18.47;102297.47;5066262;28;45750;-76
2022/03/24 08:10:39;;;;;;;;;53.67;43.00;;;;;27.34;18.69;102297.38;5048984;27;46002;-78
2022/03/24 08:13:05;;;;;;;;;54.75;44.25;;;;;27.23;18.38;102261.34;5071497;27;45510;-79
2022/03/24 08:15:32;;;;;;;;;54.67;41.00;;;;;27.22;18.56;102256.81;5046648;28;45485;-78
2022/03/24 08:17:57;;;;;;;;;48.33;39.00;;;;;27.56;18.09;102303.13;5043573;28;45535;-77
2022/03/24 08:20:23;;;;;;;;;55.33;41.33;;;;;27.55;18.21;102295.91;5041309;28;46457;-77
2022/03/24 08:22:49;;;;;;;;;45.67;37.00;;;;;27.07;18.51;102236.31;5046564;28;45831;-77
2022/03/24 08:25:15;;;;;;;;;45.00;38.00;;;;;27.33;17.96;102308.31;5042273;28;45447;-77
2022/03/24 08:27:40;;;;;;;;;42.33;36.33;;;;;27.34;17.82;102305.53;5048015;28;45714;-77
2022/03/24 08:30:05;;;;;;;;;41.67;30.33;;;;;27.34;17.92;102274.66;5052806;28;47115;-75
2022/03/24 08:32:31;;;;;;;;;46.67;36.00;;;;;27.41;17.65;102259.06;5046006;28;45949;-78
2022/03/24 08:34:57;;;;;;;;;42.00;35.00;;;;;27.64;17.57;102308.41;5048703;28;45996;-77
2022/03/24 08:37:22;;;;;;;;;42.67;35.00;;;;;27.50;17.59;102307.91;5052585;28;45477;-75
2022/03/24 08:39:48;;;;;;;;;42.67;35.00;;;;;27.26;17.57;102272.16;5045735;28;46152;-74
2022/03/24 08:42:13;;;;;;;;;44.00;36.33;;;;;27.41;17.21;102294.50;5044379;28;45398;-74
2022/03/24 08:44:39;;;;;;;;;40.00;33.00;;;;;27.53;17.76;102308.69;5048296;28;46314;-75
2022/03/24 08:47:05;;;;;;;;;42.00;37.00;;;;;27.64;17.46;102316.56;5044794;28;45533;-75
2022/03/24 08:49:31;;;;;;;;;46.00;33.67;;;;;27.78;17.33;102312.53;5050724;28;45443;-74
2022/03/24 08:51:57;;;;;;;;;39.33;35.00;;;;;27.88;17.47;102319.53;5053018;28;45599;-74
2022/03/24 08:54:23;;;;;;;;;46.33;36.33;;;;;27.77;17.09;102303.47;5053409;28;45733;-75
2022/03/24 08:56:48;;;;;;;;;39.33;35.00;;;;;27.82;17.22;102306.06;5061043;27;45509;-76
2022/03/24 08:59:14;;;;;;;;;43.00;36.33;;;;;27.92;17.11;102317.59;5053803;28;45555;-76
2022/03/24 09:01:41;;;;;;;;;47.33;38.00;;;;;28.08;17.19;102316.25;5054261;28;45560;-76
2022/03/24 09:04:06;;;;;;;;;41.67;37.00;;;;;27.71;16.96;102258.19;5053460;28;45371;-75
2022/03/24 09:06:32;;;;;;;;;43.00;37.67;;;;;28.11;17.37;102309.81;5055012;28;45377;-74
2022/03/24 09:08:57;;;;;;;;;48.00;36.00;;;;;28.26;17.32;102309.34;5054310;28;45719;-74
2022/03/24 09:11:23;;;;;;;;;39.67;35.00;;;;;28.42;16.98;102312.47;5054883;28;45424;-75
2022/03/24 09:13:49;;;;;;;;;41.67;35.33;;;;;28.30;16.85;102305.59;5052636;28;45515;-76
2022/03/24 09:16:15;;;;;;;;;43.33;36.33;;;;;28.21;16.98;102295.84;5054365;28;45494;-75
2022/03/24 09:18:42;;;;;;;;;34.67;32.33;;;;;28.33;17.21;102323.72;5054797;28;46002;-74
2022/03/24 09:21:09;;;;;;;;;46.67;35.67;;;;;28.23;16.76;102266.66;5054223;28;45436;-75
2022/03/24 09:23:35;;;;;;;;;41.00;34.67;;;;;28.62;16.99;102310.97;5054663;28;45607;-75
2022/03/24 09:26:01;;;;;;;;;42.67;36.00;;;;;28.73;17.02;102319.72;5054335;28;45478;-75
2022/03/24 09:28:27;;;;;;;;;48.67;38.33;;;;;28.75;17.09;102318.75;5058545;28;45434;-77
2022/03/24 09:30:56;;;;;;;;;50.00;39.33;;;;;28.67;17.03;102309.03;5054089;28;45443;-76
2022/03/24 09:33:21;;;;;;;;;45.00;36.00;;;;;28.47;17.06;102277.75;5053411;28;45575;-76
2022/03/24 09:35:50;;;;;;;;;44.00;36.33;;;;;28.61;17.28;102281.84;5054325;28;45476;-75
2022/03/24 09:38:16;;;;;;;;;41.33;34.33;;;;;28.82;16.90;102321.25;5055830;28;46101;-75
2022/03/24 09:40:42;;;;;;;;;46.33;38.00;;;;;28.79;17.11;102325.00;5058581;27;45363;-75
2022/03/24 09:43:07;;;;;;;;;50.67;39.00;;;;;28.93;16.77;102316.38;5053692;28;45551;-75
2022/03/24 09:45:34;;;;;;;;;48.00;38.33;;;;;29.00;16.79;102304.28;5054844;28;45384;-76
2022/03/24 09:48:00;;;;;;;;;47.67;38.67;;;;;29.00;16.82;102276.94;5053448;28;45544;-75
2022/03/24 09:50:27;;;;;;;;;47.33;37.00;;;;;29.34;16.75;102300.41;5061766;28;45526;-76
2022/03/24 09:52:53;;;;;;;;;44.33;36.00;;;;;29.19;16.78;102289.97;5054228;28;45439;-75
2022/03/24 09:55:19;;;;;;;;;39.00;35.67;;;;;29.39;16.58;102306.56;5054323;28;45288;-74
2022/03/24 09:57:47;;;;;;;;;48.67;38.33;;;;;29.34;16.67;102315.88;5053535;28;46404;-75
2022/03/24 10:00:13;;;;;;;;;47.00;36.33;;;;;29.10;16.71;102269.34;5054423;28;45448;-75
2022/03/24 10:02:39;;;;;;;;;51.33;39.00;;;;;29.28;16.49;102289.66;5054233;28;45515;-75
2022/03/24 10:05:06;;;;;;;;;35.67;32.00;;;;;29.51;16.39;102301.63;5053810;28;46332;-74
2022/03/24 10:07:48;;;;;;;;;45.00;34.33;;;;;29.65;16.25;102303.84;5054339;28;46061;-75
2022/03/24 10:10:24;;;;;;;;;39.67;34.00;;;;;29.57;16.30;102288.59;5049019;28;45352;-74
2022/03/24 10:12:49;;;;;;;;;46.00;35.67;;;;;29.75;16.47;102287.03;5057230;28;45290;-75
2022/03/24 10:15:16;;;;;;;;;47.67;35.00;;;;;29.69;16.29;102273.59;5057341;28;45325;-74
2022/03/24 10:17:51;;;;;;;;;35.00;32.00;;;;;29.53;16.37;102284.19;5064488;27;45514;-75
2022/03/24 10:20:17;;;;;;;;;47.33;36.33;;;;;29.53;16.32;102277.84;5057571;28;45443;-76
2022/03/24 10:22:59;;;;;;;;;38.33;34.00;;;;;29.72;16.59;102300.84;5059274;28;45441;-75
2022/03/24 10:25:31;;;;;;;;;36.67;34.33;;;;;29.57;16.45;102230.31;5057531;28;45375;-74
2022/03/24 10:28:11;;;;;;;;;33.67;32.00;;;;;30.06;16.41;102293.22;5060858;28;45366;-75
2022/03/24 10:30:55;;;;;;;;;38.00;33.67;;;;;30.26;16.15;102285.09;5057656;28;45468;-76
2022/03/24 10:33:30;;;;;;;;;42.33;33.33;;;;;30.19;16.06;102293.63;5060961;28;45429;-77
2022/03/24 10:36:15;;;;;;;;;28.00;22.33;;;;;30.23;15.95;102285.22;5057143;28;45506;-76
2022/03/24 10:39:04;;;;;;;;;42.33;34.33;;;;;30.09;16.08;102263.00;5057764;28;46059;-75
2022/03/24 10:41:31;;;;;;;;;31.00;28.67;;;;;30.21;16.18;102269.81;5052163;28;45499;-78
2022/03/24 10:44:05;;;;;;;;;36.67;34.00;;;;;30.31;15.86;102287.69;5058353;28;45430;-76
2022/03/24 10:46:33;;;;;;;;;40.00;33.50;;;;;30.43;16.02;102291.78;5057626;28;45375;-75
2022/03/24 10:49:14;;;;;;;;;46.00;36.67;;;;;30.39;16.08;102269.09;5057339;28;45684;-75
2022/03/24 10:51:42;;;;;;;;;37.00;32.33;;;;;30.37;16.33;102273.72;5057797;28;45527;-76
2022/03/24 10:54:29;;;;;;;;;39.67;32.67;;;;;30.47;16.11;102281.63;5057374;28;45401;-75
2022/03/24 10:57:03;;;;;;;;;36.67;32.67;;;;;30.55;16.01;102282.16;5057414;28;45356;-75
2022/03/24 10:59:33;;;;;;;;;33.67;31.33;;;;;30.66;15.88;102277.16;5058325;28;45679;-75
2022/03/24 11:01:59;;;;;;;;;37.67;33.00;;;;;30.70;16.01;102264.22;5057392;28;45477;-76
2022/03/24 11:04:25;;;;;;;;;33.33;30.00;;;;;30.89;16.06;102267.06;5056725;28;45460;-75
2022/03/24 11:06:52;;;;;;;;;32.67;28.67;;;;;30.94;15.54;102281.44;5056806;28;45567;-76
2022/03/24 11:09:22;;;;;;;;;44.00;34.00;;;;;30.77;15.53;102272.13;5056445;28;46225;-75
2022/03/24 11:11:48;;;;;;;;;38.67;34.00;;;;;30.84;15.65;102280.06;5055980;28;45503;-74